createdAt,value
2022-08-10T00:00:46.494Z,0.65
2022-08-10T00:03:14.053Z,0.40
2022-08-10T00:05:43.382Z,0.60
2022-08-10T00:08:22.762Z,0.57
2022-08-10T00:10:56.041Z,0.60
2022-08-10T00:13:24.961Z,0.70
2022-08-10T00:15:55.172Z,0.52
2022-08-10T00:18:35.196Z,0.50
2022-08-10T00:21:08.467Z,0.68
2022-08-10T00:26:07.474Z,0.65
2022-08-10T00:28:35.002Z,0.60
2022-08-10T00:31:02.625Z,0.60
2022-08-10T00:33:30.117Z,0.50
2022-08-10T00:35:57.645Z,0.60
2022-08-10T00:38:25.174Z,0.70
2022-08-10T00:40:52.709Z,0.70
2022-08-10T00:43:23.460Z,0.70
2022-08-10T00:45:58.904Z,0.70
2022-08-10T00:48:29.948Z,0.70
2022-08-10T00:50:59.691Z,0.70
2022-08-10T00:53:29.158Z,0.50
2022-08-10T00:56:38.407Z,0.60
2022-08-10T00:58:46.879Z,0.60
2022-08-10T01:02:10.097Z,0.63
2022-08-10T01:04:58.531Z,0.73
2022-08-10T01:07:04.492Z,0.70
2022-08-10T01:10:02.939Z,0.70
2022-08-10T01:12:47.062Z,0.60
2022-08-10T01:15:28.062Z,0.73
2022-08-10T01:18:37.184Z,0.50
2022-08-10T01:21:23.801Z,0.50
2022-08-10T01:24:06.564Z,0.50
2022-08-10T01:26:50.317Z,0.80
2022-08-10T01:29:48.647Z,0.70
2022-08-10T01:32:25.067Z,0.82
2022-08-10T01:35:10.345Z,0.60
2022-08-10T01:37:44.477Z,0.63
2022-08-10T01:40:25.699Z,0.60
2022-08-10T01:42:55.437Z,0.60
2022-08-10T01:45:29.098Z,0.68
2022-08-10T01:48:31.095Z,0.80
2022-08-10T01:51:05.724Z,0.60
2022-08-10T01:53:41.248Z,0.80
2022-08-10T01:56:11.789Z,0.75
2022-08-10T01:58:40.531Z,0.60
2022-08-10T02:01:16.897Z,0.90
2022-08-10T02:04:05.331Z,0.98
2022-08-10T02:06:38.340Z,0.88
2022-08-10T02:09:08.146Z,1.00
2022-08-10T02:12:06.794Z,1.00
2022-08-10T02:14:33.278Z,0.90
2022-08-10T02:17:05.783Z,0.82
2022-08-10T02:19:36.419Z,0.90
2022-08-10T02:22:15.447Z,0.73
2022-08-10T02:24:53.756Z,1.08
2022-08-10T02:27:24.545Z,1.20
2022-08-10T02:29:53.692Z,0.90
2022-08-10T02:32:36.467Z,0.73
2022-08-10T02:35:18.628Z,0.98
2022-08-10T02:37:52.289Z,0.80
2022-08-10T02:42:18.085Z,1.10
2022-08-10T02:45:18.928Z,1.40
2022-08-10T02:46:42.749Z,1.10
2022-08-10T02:49:19.114Z,1.10
2022-08-10T02:52:06.585Z,1.77
2022-08-10T02:54:40.227Z,1.20
2022-08-10T02:57:15.309Z,1.30
2022-08-10T02:59:47.325Z,1.25
2022-08-10T03:02:26.560Z,1.35
2022-08-10T03:04:58.475Z,1.30
2022-08-10T03:07:42.858Z,1.20
2022-08-10T03:10:17.051Z,1.45
2022-08-10T03:15:15.689Z,1.10
2022-08-10T03:17:58.299Z,1.33
2022-08-10T03:20:47.054Z,1.52
2022-08-10T03:23:17.707Z,1.30
2022-08-10T03:25:54.006Z,1.20
2022-08-10T03:28:30.562Z,1.42
2022-08-10T03:31:00.248Z,1.13
2022-08-10T03:33:40.504Z,1.20
2022-08-10T03:36:39.972Z,1.70
2022-08-10T03:38:56.538Z,1.52
2022-08-10T03:41:30.521Z,1.63
2022-08-10T03:44:05.620Z,2.03
2022-08-10T03:46:35.978Z,1.70
2022-08-10T03:49:06.947Z,1.70
2022-08-10T03:51:35.883Z,1.90
2022-08-10T03:54:07.328Z,1.80
2022-08-10T03:56:40.910Z,1.65
2022-08-10T03:59:14.212Z,2.72
2022-08-10T04:02:44.576Z,2.28
2022-08-10T04:04:34.726Z,2.50
2022-08-10T04:07:03.988Z,2.03
2022-08-10T04:09:54.664Z,2.42
2022-08-10T04:12:22.023Z,2.45
2022-08-10T04:14:52.779Z,2.30
2022-08-10T04:17:56.846Z,2.53
2022-08-10T04:20:34.960Z,2.80
2022-08-10T04:23:07.631Z,2.40
2022-08-10T04:25:35.854Z,3.03
2022-08-10T04:28:03.737Z,2.72
2022-08-10T04:30:33.358Z,3.90
2022-08-10T04:33:03.328Z,2.80
2022-08-10T04:35:33.023Z,3.35
2022-08-10T04:38:01.579Z,3.35
2022-08-10T04:40:31.083Z,3.47
2022-08-10T04:43:12.417Z,3.75
2022-08-10T04:45:48.433Z,3.58
2022-08-10T04:48:40.393Z,4.13
2022-08-10T04:51:10.825Z,3.55
2022-08-10T04:54:04.441Z,4.05
2022-08-10T04:56:31.803Z,4.30
2022-08-10T04:59:00.942Z,4.78
2022-08-10T05:02:22.689Z,4.57
2022-08-10T05:04:38.179Z,4.60
2022-08-10T05:07:04.217Z,4.80
2022-08-10T05:09:31.673Z,3.58
2022-08-10T05:11:59.158Z,4.35
2022-08-10T05:14:26.670Z,4.22
2022-08-10T05:16:54.155Z,3.55
2022-08-10T05:20:01.377Z,4.82
2022-08-10T05:22:09.230Z,4.45
2022-08-10T05:24:36.726Z,6.13
2022-08-10T05:27:09.903Z,4.40
2022-08-10T05:29:38.225Z,4.50
2022-08-10T05:32:06.342Z,5.07
2022-08-10T05:34:33.891Z,4.22
2022-08-10T05:37:01.590Z,5.63
2022-08-10T05:39:30.462Z,5.13
2022-08-10T05:42:00.937Z,4.72
2022-08-10T05:44:30.218Z,5.60
2022-08-10T05:46:58.068Z,4.35
2022-08-10T05:49:25.827Z,5.32
2022-08-10T05:51:53.391Z,4.50
2022-08-10T05:54:21.241Z,4.18
2022-08-10T05:56:54.235Z,4.25
2022-08-10T06:00:33.082Z,4.72
2022-08-10T06:02:37.437Z,5.68
2022-08-10T06:05:09.241Z,5.18
2022-08-10T06:07:46.100Z,3.83
2022-08-10T06:10:31.703Z,4.00
2022-08-10T06:13:34.286Z,4.53
2022-08-10T06:16:06.567Z,3.93
2022-08-10T06:18:34.510Z,4.10
2022-08-10T06:21:03.051Z,3.67
2022-08-10T06:23:32.526Z,3.67
2022-08-10T06:26:11.039Z,3.15
2022-08-10T06:28:54.009Z,3.63
2022-08-10T06:31:48.113Z,2.58
2022-08-10T06:34:21.359Z,2.63
2022-08-10T06:36:50.025Z,3.65
2022-08-10T06:39:32.812Z,3.30
2022-08-10T06:42:16.719Z,2.83
2022-08-10T06:45:13.357Z,2.65
2022-08-10T06:47:55.070Z,2.10
2022-08-10T06:50:45.320Z,2.40
2022-08-10T06:53:18.707Z,2.35
2022-08-10T06:56:10.104Z,2.58
2022-08-10T06:58:42.039Z,1.60
2022-08-10T07:01:15.508Z,1.73
2022-08-10T07:03:54.874Z,1.90
2022-08-10T07:06:23.124Z,2.00
2022-08-10T07:08:52.933Z,2.20
2022-08-10T07:11:23.021Z,2.00
2022-08-10T07:14:17.161Z,2.00
2022-08-10T07:16:45.617Z,4.70
2022-08-10T07:19:14.744Z,1.67
2022-08-10T07:21:45.451Z,1.48
2022-08-10T07:24:15.138Z,1.80
2022-08-10T07:26:48.894Z,1.30
2022-08-10T07:29:52.673Z,1.50
2022-08-10T07:32:09.269Z,2.78
2022-08-10T07:34:37.395Z,1.58
2022-08-10T07:37:08.578Z,1.20
2022-08-10T07:40:01.918Z,1.10
2022-08-10T07:42:31.842Z,1.25
2022-08-10T07:44:59.598Z,1.20
2022-08-10T07:47:53.116Z,1.00
2022-08-10T07:50:24.351Z,1.25
2022-08-10T07:52:54.410Z,0.93
2022-08-10T07:56:04.215Z,1.10
2022-08-10T07:58:12.366Z,1.00
2022-08-10T08:00:40.810Z,1.00
2022-08-10T08:03:10.787Z,0.88
2022-08-10T08:06:02.634Z,0.98
2022-08-10T08:08:28.820Z,0.90
2022-08-10T08:10:56.834Z,0.80
2022-08-10T08:13:26.019Z,0.80
2022-08-10T08:16:19.717Z,0.90
2022-08-10T08:18:50.949Z,1.00
2022-08-10T08:24:07.958Z,1.10
2022-08-10T08:24:31.629Z,1.15
2022-08-10T08:27:01.789Z,1.00
2022-08-10T08:29:30.509Z,0.90
2022-08-10T08:32:01.943Z,0.80
2022-08-10T08:34:31.484Z,1.35
2022-08-10T08:37:01.227Z,0.80
2022-08-10T08:39:29.803Z,0.77
2022-08-10T08:42:16.350Z,1.05
2022-08-10T08:45:11.473Z,0.90
2022-08-10T08:48:16.423Z,0.80
2022-08-10T08:51:02.157Z,0.82
2022-08-10T08:54:00.896Z,0.80
2022-08-10T08:56:49.971Z,0.90
2022-08-10T08:59:29.944Z,0.70
2022-08-10T09:02:16.127Z,0.60
2022-08-10T09:05:59.966Z,0.60
2022-08-10T09:08:52.668Z,0.88
2022-08-10T09:11:20.087Z,0.70
2022-08-10T09:14:02.801Z,0.70
2022-08-10T09:16:57.573Z,0.57
2022-08-10T09:19:40.148Z,0.70
2022-08-10T09:22:18.707Z,0.70
2022-08-10T09:25:13.563Z,0.60
2022-08-10T09:27:50.218Z,0.47
2022-08-10T09:30:33.079Z,0.70
2022-08-10T09:36:21.773Z,0.60
2022-08-10T09:36:25.987Z,0.60
2022-08-10T09:39:08.909Z,0.60
2022-08-10T09:41:39.150Z,0.80
2022-08-10T09:44:27.373Z,1.20
2022-08-10T09:47:58.566Z,0.55
2022-08-10T09:50:24.091Z,0.68
2022-08-10T09:53:05.139Z,0.70
2022-08-10T09:56:17.667Z,1.23
2022-08-10T09:58:51.288Z,0.40
2022-08-10T10:02:02.998Z,0.50
2022-08-10T10:04:52.285Z,0.60
2022-08-10T10:07:43.463Z,0.50
2022-08-10T10:10:33.829Z,0.60
2022-08-10T10:13:10.218Z,0.57
2022-08-10T10:16:04.495Z,0.60
2022-08-10T10:18:37.563Z,0.50
2022-08-10T10:21:08.471Z,0.60
2022-08-10T10:24:20.444Z,0.50
2022-08-10T10:27:33.840Z,0.50
2022-08-10T10:30:15.348Z,0.40
2022-08-10T10:32:59.462Z,0.70
2022-08-10T10:35:38.778Z,0.50
2022-08-10T10:38:11.201Z,0.40
2022-08-10T10:40:46.721Z,0.40
2022-08-10T10:43:33.756Z,0.65
2022-08-10T10:46:23.025Z,0.40
2022-08-10T10:49:04.571Z,0.57
2022-08-10T10:51:44.312Z,0.40
2022-08-10T10:54:20.427Z,0.50
2022-08-10T10:57:23.709Z,0.70
2022-08-10T11:00:13.481Z,0.50
2022-08-10T11:03:04.988Z,0.60
2022-08-10T11:05:50.791Z,0.55
2022-08-10T11:08:29.199Z,1.80
2022-08-10T11:11:05.377Z,0.40
2022-08-10T11:14:24.650Z,0.50
2022-08-10T11:16:54.423Z,0.50
2022-08-10T11:20:02.532Z,0.63
2022-08-10T11:22:43.056Z,0.50
2022-08-10T11:25:39.670Z,0.50
2022-08-10T11:28:41.685Z,0.40
2022-08-10T11:31:20.842Z,0.50
2022-08-10T11:34:48.607Z,0.60
2022-08-10T11:37:23.162Z,1.58
2022-08-10T11:40:15.329Z,0.50
2022-08-10T11:42:55.702Z,0.50
2022-08-10T11:45:29.998Z,1.40
2022-08-10T11:48:07.809Z,0.40
2022-08-10T11:50:44.525Z,0.60
2022-08-10T11:53:22.814Z,0.40
2022-08-10T11:55:56.957Z,0.40
2022-08-10T11:58:47.321Z,0.68
2022-08-10T12:01:18.861Z,0.40
2022-08-10T12:03:48.613Z,0.50
2022-08-10T12:06:39.169Z,0.20
2022-08-10T12:10:11.121Z,0.40
2022-08-10T12:12:00.301Z,0.40
2022-08-10T12:14:42.037Z,0.50
2022-08-10T12:17:16.905Z,0.30
2022-08-10T12:19:59.302Z,0.40
2022-08-10T12:22:48.671Z,0.47
2022-08-10T12:25:57.563Z,0.40
2022-08-10T12:28:51.204Z,0.30
2022-08-10T12:31:14.427Z,0.32
2022-08-10T12:34:02.672Z,0.22
2022-08-10T12:36:40.862Z,0.40
2022-08-10T12:39:21.588Z,0.43
2022-08-10T12:42:04.487Z,0.40
2022-08-10T12:44:41.610Z,0.40
2022-08-10T12:47:18.777Z,0.30
2022-08-10T12:50:32.902Z,0.40
2022-08-10T12:53:34.275Z,0.47
2022-08-10T12:56:03.506Z,0.50
2022-08-10T12:59:00.151Z,0.28
2022-08-10T13:01:20.907Z,0.50
2022-08-10T13:04:21.232Z,0.35
2022-08-10T13:06:46.171Z,0.40
2022-08-10T13:09:23.225Z,0.32
2022-08-10T13:12:35.318Z,0.50
2022-08-10T13:14:51.161Z,0.43
2022-08-10T13:17:39.233Z,0.50
2022-08-10T13:20:17.295Z,0.40
2022-08-10T13:22:48.421Z,0.40
2022-08-10T13:28:00.863Z,0.40
2022-08-10T13:30:37.343Z,0.60
2022-08-10T13:33:08.294Z,0.30
2022-08-10T13:35:37.976Z,0.40
2022-08-10T13:38:08.165Z,0.40
2022-08-10T13:40:37.114Z,0.40
2022-08-10T13:43:08.501Z,0.40
2022-08-10T13:45:46.276Z,0.60
2022-08-10T13:48:22.357Z,0.35
2022-08-10T13:50:58.919Z,0.40
2022-08-10T13:53:31.938Z,0.50
2022-08-10T13:56:00.746Z,0.30
2022-08-10T13:58:34.998Z,0.40
2022-08-10T14:01:10.940Z,0.50
2022-08-10T14:03:41.023Z,0.50
2022-08-10T14:06:13.341Z,0.60
2022-08-10T14:08:46.647Z,0.30
2022-08-10T14:11:17.853Z,0.82
2022-08-10T14:13:53.030Z,0.40
2022-08-10T14:16:21.656Z,0.40
2022-08-10T14:18:52.348Z,0.45
2022-08-10T14:21:20.648Z,0.50
2022-08-10T14:23:53.205Z,0.70
2022-08-10T14:26:26.994Z,0.45
2022-08-10T14:28:58.194Z,0.50
2022-08-10T14:34:00.468Z,0.40
2022-08-10T14:36:39.062Z,0.60
2022-08-10T14:39:08.523Z,0.52
2022-08-10T14:42:00.869Z,0.50
2022-08-10T14:44:30.990Z,0.50
2022-08-10T14:47:52.367Z,0.50
2022-08-10T14:49:58.230Z,0.40
2022-08-10T14:52:27.973Z,0.57
2022-08-10T14:54:58.009Z,0.60
2022-08-10T14:58:20.123Z,0.95
2022-08-10T15:00:30.843Z,0.95
2022-08-10T15:03:04.372Z,0.60
2022-08-10T15:05:45.443Z,0.50
2022-08-10T15:08:14.943Z,0.50
2022-08-10T15:10:51.085Z,0.47
2022-08-10T15:13:33.857Z,0.45
2022-08-10T15:16:13.888Z,0.55
2022-08-10T15:18:57.541Z,0.52
2022-08-10T15:21:40.721Z,0.80
2022-08-10T15:24:16.143Z,0.50
2022-08-10T15:26:57.591Z,0.50
2022-08-10T15:29:27.240Z,0.50
2022-08-10T15:32:12.346Z,0.60
2022-08-10T15:34:58.164Z,0.60
2022-08-10T15:37:47.098Z,0.20
2022-08-10T15:40:24.617Z,0.32
2022-08-10T15:43:24.900Z,0.45
2022-08-10T15:46:29.732Z,0.57
2022-08-10T15:49:02.164Z,0.40
2022-08-10T15:51:54.361Z,0.40
2022-08-10T15:54:33.578Z,0.52
2022-08-10T15:57:10.554Z,0.50
2022-08-10T15:59:56.598Z,0.43
2022-08-10T16:02:28.146Z,0.98
2022-08-10T16:07:45.851Z,0.52
2022-08-10T16:10:27.616Z,0.40
2022-08-10T16:13:02.274Z,0.73
2022-08-10T16:15:59.336Z,0.40
2022-08-10T16:18:29.343Z,0.45
2022-08-10T16:21:02.165Z,0.52
2022-08-10T16:23:34.859Z,0.38
2022-08-10T16:26:14.488Z,0.50
2022-08-10T16:28:50.976Z,0.40
2022-08-10T16:31:24.896Z,0.43
2022-08-10T16:33:55.489Z,0.32
2022-08-10T16:36:50.014Z,0.40
2022-08-10T16:39:57.920Z,0.50
2022-08-10T16:42:17.567Z,0.47
2022-08-10T16:44:53.446Z,0.40
2022-08-10T16:47:27.493Z,0.40
2022-08-10T16:49:59.317Z,0.50
2022-08-10T16:55:47.549Z,0.50
2022-08-10T16:58:09.211Z,0.70
2022-08-10T17:00:38.661Z,0.40
2022-08-10T17:04:04.661Z,0.40
2022-08-10T17:08:48.127Z,0.70
2022-08-10T17:11:18.167Z,0.50
2022-08-10T17:13:46.337Z,0.80
2022-08-10T17:16:16.937Z,0.40
2022-08-10T17:18:47.902Z,0.50
2022-08-10T17:21:23.480Z,0.80
2022-08-10T17:23:54.374Z,0.60
2022-08-10T17:26:37.080Z,0.50
2022-08-10T17:29:58.613Z,1.30
2022-08-10T17:32:17.869Z,0.40
2022-08-10T17:34:53.899Z,0.63
2022-08-10T17:37:24.461Z,0.93
2022-08-10T17:40:00.593Z,0.50
2022-08-10T17:42:28.476Z,0.50
2022-08-10T17:44:57.573Z,0.50
2022-08-10T17:47:27.621Z,0.60
2022-08-10T17:49:59.705Z,0.40
2022-08-10T17:52:31.598Z,0.40
2022-08-10T17:55:04.666Z,0.60
2022-08-10T17:57:37.946Z,0.45
2022-08-10T18:00:09.884Z,0.60
2022-08-10T18:05:10.271Z,0.60
2022-08-10T18:07:46.567Z,0.50
2022-08-10T18:10:19.603Z,1.17
2022-08-10T18:12:49.923Z,0.50
2022-08-10T18:15:22.071Z,0.50
2022-08-10T18:18:02.247Z,0.60
2022-08-10T18:20:38.216Z,0.40
2022-08-10T18:23:07.827Z,0.68
2022-08-10T18:25:39.466Z,0.50
2022-08-10T18:28:12.168Z,0.43
2022-08-10T18:30:50.533Z,0.50
2022-08-10T18:33:19.885Z,0.73
2022-08-10T18:35:49.067Z,0.50
2022-08-10T18:38:18.676Z,0.40
2022-08-10T18:41:00.285Z,0.80
2022-08-10T18:44:07.177Z,0.80
2022-08-10T18:46:28.152Z,0.45
2022-08-10T18:49:13.221Z,0.50
2022-08-10T18:51:46.812Z,0.68
2022-08-10T18:54:39.819Z,0.55
2022-08-10T18:57:59.082Z,0.38
2022-08-10T19:01:01.754Z,0.40
2022-08-10T19:03:38.347Z,0.43
2022-08-10T19:06:49.165Z,0.63
2022-08-10T19:09:47.779Z,0.52
2022-08-10T19:12:30.154Z,1.08
2022-08-10T19:15:05.998Z,0.60
2022-08-10T19:18:03.319Z,0.50
2022-08-10T19:20:40.369Z,0.60
2022-08-10T19:23:29.962Z,0.60
2022-08-10T19:26:44.621Z,0.73
2022-08-10T19:30:10.142Z,0.68
2022-08-10T19:32:33.028Z,1.13
2022-08-10T19:35:35.233Z,0.73
2022-08-10T19:38:49.591Z,0.88
2022-08-10T19:41:42.194Z,0.82
2022-08-10T19:44:18.869Z,0.60
2022-08-10T19:47:08.846Z,0.93
2022-08-10T19:49:52.301Z,1.00
2022-08-10T19:52:38.472Z,0.75
2022-08-10T19:55:30.628Z,0.98
2022-08-10T20:01:02.200Z,0.80
2022-08-10T20:03:49.279Z,0.98
2022-08-10T20:06:32.830Z,0.60
2022-08-10T20:09:02.499Z,0.70
2022-08-10T20:11:56.011Z,0.90
2022-08-10T20:14:48.155Z,0.75
2022-08-10T20:17:50.985Z,1.13
2022-08-10T20:20:31.267Z,0.90
2022-08-10T20:23:15.545Z,1.08
2022-08-10T20:26:02.080Z,0.80
2022-08-10T20:28:32.744Z,0.80
2022-08-10T20:31:11.533Z,0.70
2022-08-10T20:34:01.766Z,0.85
2022-08-10T20:36:36.727Z,1.38
2022-08-10T20:39:14.540Z,0.85
2022-08-10T20:41:58.431Z,0.90
2022-08-10T20:44:25.931Z,0.90
2022-08-10T20:47:19.047Z,0.90
2022-08-10T20:50:16.847Z,1.25
2022-08-10T20:52:48.883Z,0.95
2022-08-10T20:58:03.302Z,0.85
2022-08-10T21:00:47.502Z,1.00
2022-08-10T21:03:31.925Z,0.80
2022-08-10T21:06:00.815Z,1.02
2022-08-10T21:08:53.091Z,0.95
2022-08-10T21:14:28.334Z,0.90
2022-08-10T21:17:06.317Z,0.80
2022-08-10T21:20:15.640Z,0.90
2022-08-10T21:22:45.761Z,1.17
2022-08-10T21:25:20.458Z,0.80
2022-08-10T21:27:58.991Z,1.00
2022-08-10T21:30:25.338Z,0.70
2022-08-10T21:33:06.482Z,1.10
2022-08-10T21:35:48.579Z,0.80
2022-08-10T21:41:17.833Z,0.85
2022-08-10T21:44:39.868Z,0.90
2022-08-10T21:48:07.466Z,0.82
2022-08-10T21:51:05.755Z,0.98
2022-08-10T21:53:57.216Z,0.70
2022-08-10T21:57:12.040Z,0.98
2022-08-10T22:00:02.804Z,1.00
2022-08-10T22:02:52.655Z,1.13
2022-08-10T22:05:47.643Z,1.00
2022-08-10T22:08:36.876Z,0.90
2022-08-10T22:11:24.742Z,1.10
2022-08-10T22:14:10.407Z,1.10
2022-08-10T22:17:59.381Z,0.93
2022-08-10T22:20:43.741Z,0.85
2022-08-10T22:23:40.868Z,1.10
2022-08-10T22:27:01.121Z,1.70
2022-08-10T22:29:56.387Z,0.98
2022-08-10T22:32:53.539Z,0.98
2022-08-10T22:36:15.509Z,1.15
2022-08-10T22:39:11.382Z,2.03
2022-08-10T22:42:08.661Z,1.00
2022-08-10T22:45:00.111Z,1.30
2022-08-10T22:47:48.799Z,1.30
2022-08-10T22:50:20.676Z,0.90
2022-08-10T22:53:02.024Z,0.85
2022-08-10T22:55:54.368Z,1.20
2022-08-10T22:58:40.667Z,1.15
2022-08-10T23:01:39.063Z,1.10
2022-08-10T23:04:23.623Z,1.42
2022-08-10T23:07:09.183Z,1.10
2022-08-10T23:09:42.115Z,1.00
2022-08-10T23:12:36.499Z,1.40
2022-08-10T23:15:24.159Z,1.10
2022-08-10T23:18:14.370Z,1.20
2022-08-10T23:20:44.553Z,1.20
2022-08-10T23:23:24.082Z,1.20
2022-08-10T23:25:57.483Z,1.30
2022-08-10T23:28:58.565Z,1.30
2022-08-10T23:31:17.729Z,1.70
2022-08-10T23:34:07.342Z,1.50
2022-08-10T23:36:38.293Z,1.73
2022-08-10T23:39:26.933Z,1.63
2022-08-10T23:42:04.714Z,1.60
2022-08-10T23:44:47.293Z,1.17
2022-08-10T23:47:26.693Z,1.35
2022-08-10T23:49:57.734Z,1.70
2022-08-10T23:52:33.059Z,1.55
2022-08-10T23:55:05.934Z,1.95
2022-08-10T23:57:36.039Z,1.13
